Time,TemperatureF,DewpointF,PressureIn,WindDirection,WindDirectionDegrees,WindSpeedMPH,WindSpeedGustMPH,Humidity,HourlyPrecipIn,Conditions,Clouds,dailyrainin,SoftwareType,DateUTC
2013-02-20 00:00:00,46.6,31.8,30.14,NNE,26,1.0,1.0,56,0.00,,---,0.00,VWS V14.01,2013-02-20 06:00:00,
2013-02-20 00:05:00,46.5,31.7,30.14,NNE,26,2.0,4.0,56,0.00,,---,0.00,VWS V14.01,2013-02-20 06:05:00,
2013-02-20 00:10:00,46.4,31.6,30.14,NNE,26,0.0,4.0,56,0.00,,---,0.00,VWS V14.01,2013-02-20 06:10:00,
2013-02-20 00:15:00,46.3,31.0,30.15,NNE,26,0.0,4.0,55,0.00,,---,0.00,VWS V14.01,2013-02-20 06:15:00,
2013-02-20 00:20:00,46.1,30.9,30.15,NNE,22,1.0,4.0,55,0.00,,---,0.00,VWS V14.01,2013-02-20 06:20:00,
2013-02-20 00:25:00,46.0,31.2,30.16,North,11,0.0,4.0,56,0.00,,---,0.00,VWS V14.01,2013-02-20 06:25:00,
2013-02-20 00:30:00,45.7,31.8,30.16,North,11,0.0,0.0,58,0.00,,---,0.00,VWS V14.01,2013-02-20 06:30:00,
2013-02-20 00:35:00,45.4,31.5,30.17,North,11,0.0,0.0,58,0.00,,---,0.00,VWS V14.01,2013-02-20 06:35:00,
2013-02-20 00:40:00,45.0,31.5,30.16,North,11,0.0,1.0,59,0.00,,---,0.00,VWS V14.01,2013-02-20 06:40:00,
2013-02-20 00:45:00,44.8,32.6,30.16,North,11,0.0,1.0,62,0.00,,---,0.00,VWS V14.01,2013-02-20 06:45:00,
2013-02-20 00:50:00,44.4,32.6,30.16,North,11,0.0,1.0,63,0.00,,---,0.00,VWS V14.01,2013-02-20 06:50:00,
2013-02-20 00:55:00,43.9,32.5,30.16,North,11,0.0,1.0,64,0.00,,---,0.00,VWS V14.01,2013-02-20 06:55:00,
2013-02-20 01:00:00,43.4,32.0,30.17,North,11,0.0,1.0,64,0.00,,---,0.00,VWS V14.01,2013-02-20 07:00:00,
2013-02-20 01:05:00,43.1,32.2,30.16,NNE,12,0.0,3.0,65,0.00,,---,0.00,VWS V14.01,2013-02-20 07:05:00,
2013-02-20 01:10:00,42.8,32.2,30.16,NNE,12,2.0,3.0,66,0.00,,---,0.00,VWS V14.01,2013-02-20 07:10:00,
2013-02-20 01:15:00,42.9,31.6,30.15,NNE,19,0.0,3.0,64,0.00,,---,0.00,VWS V14.01,2013-02-20 07:15:00,
2013-02-20 01:20:00,42.9,31.6,30.15,NNE,24,2.0,3.0,64,0.00,,---,0.00,VWS V14.01,2013-02-20 07:20:00,
2013-02-20 01:25:00,42.9,31.6,30.15,NNE,23,1.0,4.0,64,0.00,,---,0.00,VWS V14.01,2013-02-20 07:25:00,
2013-02-20 01:30:00,43.1,30.6,30.16,NNE,28,5.0,5.0,61,0.00,,---,0.00,VWS V14.01,2013-02-20 07:30:00,
2013-02-20 01:35:00,43.4,30.5,30.16,NNE,32,3.0,6.0,60,0.00,,---,0.00,VWS V14.01,2013-02-20 07:35:00,
2013-02-20 01:40:00,43.7,29.9,30.16,NNE,19,1.0,6.0,58,0.00,,---,0.00,VWS V14.01,2013-02-20 07:40:00,
2013-02-20 01:45:00,43.9,30.1,30.16,NNE,24,3.0,6.0,58,0.00,,---,0.00,VWS V14.01,2013-02-20 07:45:00,
2013-02-20 01:50:00,44.0,30.2,30.16,NE,39,4.0,6.0,58,0.00,,---,0.00,VWS V14.01,2013-02-20 07:50:00,
2013-02-20 01:55:00,43.9,30.1,30.16,NE,35,2.0,6.0,58,0.00,,---,0.00,VWS V14.01,2013-02-20 07:55:00,
2013-02-20 02:00:00,43.9,30.1,30.16,NNE,24,2.0,6.0,58,0.00,,---,0.00,VWS V14.01,2013-02-20 08:00:00,
2013-02-20 02:05:00,43.8,30.0,30.16,NE,42,1.0,6.0,58,0.00,,---,0.00,VWS V14.01,2013-02-20 08:05:00,
2013-02-20 02:10:00,43.7,29.9,30.15,NE,42,3.0,6.0,58,0.00,,---,0.00,VWS V14.01,2013-02-20 08:10:00,
2013-02-20 02:15:00,43.4,30.0,30.15,NE,41,2.0,6.0,59,0.00,,---,0.00,VWS V14.01,2013-02-20 08:15:00,
2013-02-20 02:20:00,43.2,29.9,30.14,NE,40,4.0,6.0,59,0.00,,---,0.00,VWS V14.01,2013-02-20 08:20:00,
2013-02-20 02:25:00,43.1,29.8,30.14,NNE,30,3.0,6.0,59,0.00,,---,0.00,VWS V14.01,2013-02-20 08:25:00,
2013-02-20 02:30:00,43.0,29.7,30.14,NE,42,0.0,4.0,59,0.00,,---,0.00,VWS V14.01,2013-02-20 08:30:00,
2013-02-20 02:35:00,42.9,29.6,30.14,NE,52,6.0,9.0,59,0.00,,---,0.00,VWS V14.01,2013-02-20 08:35:00,
2013-02-20 02:40:00,42.9,29.6,30.14,North,9,7.0,10.0,59,0.00,,---,0.00,VWS V14.01,2013-02-20 08:40:00,
2013-02-20 02:45:00,42.9,29.2,30.14,NE,40,1.0,10.0,58,0.00,,---,0.00,VWS V14.01,2013-02-20 08:45:00,
2013-02-20 02:50:00,42.9,29.2,30.14,NE,39,5.0,10.0,58,0.00,,---,0.00,VWS V14.01,2013-02-20 08:50:00,
2013-02-20 02:55:00,42.9,29.6,30.14,NE,34,10.0,10.0,59,0.00,,---,0.00,VWS V14.01,2013-02-20 08:55:00,
2013-02-20 03:00:00,43.0,29.2,30.14,NNE,30,6.0,9.0,58,0.00,,---,0.00,VWS V14.01,2013-02-20 09:00:00,
2013-02-20 03:05:00,43.0,28.8,30.14,NNE,30,6.0,11.0,57,0.00,,---,0.00,VWS V14.01,2013-02-20 09:05:00,
2013-02-20 03:10:00,43.0,29.2,30.14,NE,46,4.0,11.0,58,0.00,,---,0.00,VWS V14.01,2013-02-20 09:10:00,
2013-02-20 03:15:00,42.8,29.1,30.14,NE,49,4.0,11.0,58,0.00,,---,0.00,VWS V14.01,2013-02-20 09:15:00,
2013-02-20 03:20:00,42.7,29.0,30.14,ENE,65,5.0,11.0,58,0.00,,---,0.00,VWS V14.01,2013-02-20 09:20:00,
2013-02-20 03:25:00,42.8,29.1,30.14,NE,40,4.0,11.0,58,0.00,,---,0.00,VWS V14.01,2013-02-20 09:25:00,
2013-02-20 03:30:00,42.6,28.9,30.14,NE,41,2.0,3.0,58,0.00,,---,0.00,VWS V14.01,2013-02-20 09:30:00,
2013-02-20 03:35:00,42.5,28.8,30.14,NE,38,4.0,7.0,58,0.00,,---,0.00,VWS V14.01,2013-02-20 09:35:00,
2013-02-20 03:40:00,42.4,29.1,30.14,NE,46,4.0,7.0,59,0.00,,---,0.00,VWS V14.01,2013-02-20 09:40:00,
2013-02-20 03:45:00,42.3,29.0,30.14,NE,36,2.0,7.0,59,0.00,,---,0.00,VWS V14.01,2013-02-20 09:45:00,
2013-02-20 03:50:00,42.3,29.0,30.14,NNE,28,6.0,7.0,59,0.00,,---,0.00,VWS V14.01,2013-02-20 09:50:00,
2013-02-20 03:55:00,42.2,28.9,30.13,NE,54,5.0,7.0,59,0.00,,---,0.00,VWS V14.01,2013-02-20 09:55:00,
2013-02-20 04:00:00,42.1,28.8,30.13,NNE,24,2.0,5.0,59,0.00,,---,0.00,VWS V14.01,2013-02-20 10:00:00,
2013-02-20 04:05:00,42.2,28.9,30.14,NNE,29,3.0,10.0,59,0.00,,---,0.00,VWS V14.01,2013-02-20 10:05:00,
2013-02-20 04:10:00,42.1,28.8,30.14,NNE,32,4.0,10.0,59,0.00,,---,0.00,VWS V14.01,2013-02-20 10:10:00,
2013-02-20 04:15:00,42.0,29.1,30.14,NE,40,3.0,10.0,60,0.00,,---,0.00,VWS V14.01,2013-02-20 10:15:00,
2013-02-20 04:20:00,41.8,29.0,30.14,NNE,33,4.0,10.0,60,0.00,,---,0.00,VWS V14.01,2013-02-20 10:20:00,
2013-02-20 04:25:00,41.6,29.2,30.14,ENE,60,3.0,10.0,61,0.00,,---,0.00,VWS V14.01,2013-02-20 10:25:00,
2013-02-20 04:30:00,41.5,29.1,30.14,NE,49,4.0,4.0,61,0.00,,---,0.00,VWS V14.01,2013-02-20 10:30:00,
2013-02-20 04:35:00,41.6,29.2,30.13,NE,50,4.0,8.0,61,0.00,,---,0.00,VWS V14.01,2013-02-20 10:35:00,
2013-02-20 04:40:00,41.6,29.2,30.13,NE,40,5.0,9.0,61,0.00,,---,0.00,VWS V14.01,2013-02-20 10:40:00,
2013-02-20 04:45:00,41.7,29.3,30.13,ENE,59,4.0,9.0,61,0.00,,---,0.00,VWS V14.01,2013-02-20 10:45:00,
2013-02-20 04:50:00,41.8,29.8,30.12,ENE,68,4.0,9.0,62,0.00,,---,0.00,VWS V14.01,2013-02-20 10:50:00,
2013-02-20 04:55:00,41.8,29.4,30.12,ENE,63,5.0,11.0,61,0.00,,---,0.00,VWS V14.01,2013-02-20 10:55:00,
2013-02-20 05:00:00,41.8,29.4,30.12,NE,42,5.0,7.0,61,0.00,,---,0.00,VWS V14.01,2013-02-20 11:00:00,
2013-02-20 05:05:00,41.9,29.5,30.12,ENE,78,5.0,10.0,61,0.00,,---,0.00,VWS V14.01,2013-02-20 11:05:00,
2013-02-20 05:10:00,41.9,29.9,30.11,ENE,61,2.0,10.0,62,0.00,,---,0.00,VWS V14.01,2013-02-20 11:10:00,
2013-02-20 05:15:00,41.9,29.9,30.11,ENE,73,4.0,10.0,62,0.00,,---,0.00,VWS V14.01,2013-02-20 11:15:00,
2013-02-20 05:20:00,42.0,29.5,30.11,ENE,66,3.0,11.0,61,0.00,,---,0.00,VWS V14.01,2013-02-20 11:20:00,
2013-02-20 05:25:00,42.1,30.0,30.11,ENE,71,5.0,11.0,62,0.00,,---,0.00,VWS V14.01,2013-02-20 11:25:00,
2013-02-20 05:30:00,42.1,29.6,30.10,NE,52,7.0,7.0,61,0.00,,---,0.00,VWS V14.01,2013-02-20 11:30:00,
2013-02-20 05:35:00,42.2,30.1,30.10,NE,56,6.0,9.0,62,0.00,,---,0.00,VWS V14.01,2013-02-20 11:35:00,
2013-02-20 05:40:00,42.2,30.1,30.10,ENE,73,4.0,10.0,62,0.00,,---,0.00,VWS V14.01,2013-02-20 11:40:00,
2013-02-20 05:45:00,42.2,30.5,30.10,ENE,73,7.0,10.0,63,0.00,,---,0.00,VWS V14.01,2013-02-20 11:45:00,
2013-02-20 05:50:00,42.3,30.2,30.09,East,90,10.0,13.0,62,0.00,,---,0.00,VWS V14.01,2013-02-20 11:50:00,
2013-02-20 05:55:00,42.6,30.1,30.09,East,82,8.0,13.0,61,0.00,,---,0.00,VWS V14.01,2013-02-20 11:55:00,
2013-02-20 06:00:00,42.8,29.9,30.09,NE,51,3.0,12.0,60,0.00,,---,0.00,VWS V14.01,2013-02-20 12:00:00,
2013-02-20 06:05:00,42.9,30.0,30.10,East,93,2.0,14.0,60,0.00,,---,0.00,VWS V14.01,2013-02-20 12:05:00,
2013-02-20 06:10:00,42.9,29.6,30.10,ENE,69,11.0,17.0,59,0.00,,---,0.00,VWS V14.01,2013-02-20 12:10:00,
2013-02-20 06:15:00,43.1,29.8,30.12,NE,43,4.0,17.0,59,0.00,,---,0.00,VWS V14.01,2013-02-20 12:15:00,
2013-02-20 06:20:00,43.2,29.4,30.12,NE,53,9.0,17.0,58,0.00,,---,0.00,VWS V14.01,2013-02-20 12:20:00,
2013-02-20 06:25:00,43.2,29.0,30.13,NE,42,6.0,17.0,57,0.00,,---,0.00,VWS V14.01,2013-02-20 12:25:00,
2013-02-20 06:30:00,43.3,29.5,30.13,East,92,6.0,6.0,58,0.00,,---,0.00,VWS V14.01,2013-02-20 12:30:00,
2013-02-20 06:35:00,43.2,29.4,30.13,ENE,65,11.0,13.0,58,0.00,,---,0.00,VWS V14.01,2013-02-20 12:35:00,
2013-02-20 06:40:00,43.2,29.4,30.12,ENE,71,9.0,16.0,58,0.00,,---,0.00,VWS V14.01,2013-02-20 12:40:00,
2013-02-20 06:45:00,43.2,29.0,30.12,East,93,6.0,16.0,57,0.00,,---,0.00,VWS V14.01,2013-02-20 12:45:00,
2013-02-20 06:50:00,43.3,28.7,30.13,NE,56,3.0,16.0,56,0.00,,---,0.00,VWS V14.01,2013-02-20 12:50:00,
2013-02-20 06:55:00,43.4,28.3,30.13,ENE,75,6.0,16.0,55,0.00,,---,0.00,VWS V14.01,2013-02-20 12:55:00,
2013-02-20 07:00:00,43.4,29.2,30.13,East,83,5.0,6.0,57,0.00,,---,0.00,VWS V14.01,2013-02-20 13:00:00,
2013-02-20 07:05:00,43.4,28.3,30.15,NE,56,0.0,10.0,55,0.00,,---,0.00,VWS V14.01,2013-02-20 13:05:00,
2013-02-20 07:10:00,43.6,28.1,30.16,NE,53,5.0,10.0,54,0.00,,---,0.00,VWS V14.01,2013-02-20 13:10:00,
2013-02-20 07:15:00,43.8,28.7,30.16,ESE,103,5.0,10.0,55,0.00,,---,0.00,VWS V14.01,2013-02-20 13:15:00,
2013-02-20 07:20:00,44.0,28.0,30.16,NE,53,3.0,10.0,53,0.00,,---,0.00,VWS V14.01,2013-02-20 13:20:00,
2013-02-20 07:25:00,44.3,28.7,30.16,NE,38,5.0,10.0,54,0.00,,---,0.00,VWS V14.01,2013-02-20 13:25:00,
2013-02-20 07:30:00,44.5,28.5,30.16,ENE,65,7.0,10.0,53,0.00,,---,0.00,VWS V14.01,2013-02-20 13:30:00,
2013-02-20 07:35:00,44.5,28.5,30.16,East,96,5.0,12.0,53,0.00,,---,0.00,VWS V14.01,2013-02-20 13:35:00,
2013-02-20 07:40:00,44.6,28.5,30.16,NE,48,7.0,12.0,53,0.00,,---,0.00,VWS V14.01,2013-02-20 13:40:00,
2013-02-20 07:45:00,44.6,28.1,30.17,ENE,74,11.0,13.0,52,0.00,,---,0.00,VWS V14.01,2013-02-20 13:45:00,
2013-02-20 07:50:00,44.7,28.6,30.17,ENE,78,7.0,13.0,53,0.00,,---,0.00,VWS V14.01,2013-02-20 13:50:00,
2013-02-20 07:55:00,44.8,28.3,30.17,ENE,69,5.0,13.0,52,0.00,,---,0.00,VWS V14.01,2013-02-20 13:55:00,
2013-02-20 08:00:00,44.9,28.8,30.17,East,90,1.0,5.0,53,0.00,,---,0.00,VWS V14.01,2013-02-20 14:00:00,
2013-02-20 08:05:00,45.0,28.9,30.17,ENE,76,3.0,9.0,53,0.00,,---,0.00,VWS V14.01,2013-02-20 14:05:00,
2013-02-20 08:10:00,45.1,28.5,30.17,ENE,72,4.0,11.0,52,0.00,,---,0.00,VWS V14.01,2013-02-20 14:10:00,
2013-02-20 08:15:00,45.1,26.6,30.18,ENE,68,5.0,13.0,48,0.00,,---,0.00,VWS V14.01,2013-02-20 14:15:00,
2013-02-20 08:20:00,45.2,26.7,30.17,East,80,7.0,14.0,48,0.00,,---,0.00,VWS V14.01,2013-02-20 14:20:00,
2013-02-20 08:25:00,45.2,27.2,30.18,ENE,60,6.0,14.0,49,0.00,,---,0.00,VWS V14.01,2013-02-20 14:25:00,
2013-02-20 08:30:00,45.3,26.3,30.18,NE,53,10.0,10.0,47,0.00,,---,0.00,VWS V14.01,2013-02-20 14:30:00,
2013-02-20 08:35:00,45.3,26.3,30.18,East,79,2.0,12.0,47,0.00,,---,0.00,VWS V14.01,2013-02-20 14:35:00,
2013-02-20 08:40:00,45.4,26.9,30.18,ENE,76,8.0,12.0,48,0.00,,---,0.00,VWS V14.01,2013-02-20 14:40:00,
2013-02-20 08:45:00,45.4,26.4,30.18,NE,51,13.0,14.0,47,0.00,,---,0.00,VWS V14.01,2013-02-20 14:45:00,
2013-02-20 08:50:00,45.4,25.9,30.19,NE,52,10.0,15.0,46,0.00,,---,0.00,VWS V14.01,2013-02-20 14:50:00,
2013-02-20 08:55:00,45.5,27.0,30.20,ENE,62,4.0,15.0,48,0.00,,---,0.00,VWS V14.01,2013-02-20 14:55:00,
2013-02-20 09:00:00,45.6,26.5,30.19,ENE,73,0.0,4.0,47,0.00,,---,0.00,VWS V14.01,2013-02-20 15:00:00,
2013-02-20 09:05:00,45.6,25.5,30.19,ENE,69,4.0,13.0,45,0.00,,---,0.00,VWS V14.01,2013-02-20 15:05:00,
2013-02-20 09:10:00,45.6,25.5,30.20,ENE,64,11.0,13.0,45,0.00,,---,0.00,VWS V14.01,2013-02-20 15:10:00,
2013-02-20 09:15:00,45.6,25.5,30.20,NE,38,5.0,15.0,45,0.00,,---,0.00,VWS V14.01,2013-02-20 15:15:00,
2013-02-20 09:20:00,45.7,25.6,30.21,East,92,7.0,15.0,45,0.00,,---,0.00,VWS V14.01,2013-02-20 15:20:00,
2013-02-20 09:25:00,45.9,25.8,30.20,ENE,75,3.0,15.0,45,0.00,,---,0.00,VWS V14.01,2013-02-20 15:25:00,
2013-02-20 09:30:00,46.0,25.9,30.19,East,80,5.0,11.0,45,0.00,,---,0.00,VWS V14.01,2013-02-20 15:30:00,
2013-02-20 09:35:00,46.2,26.6,30.19,East,84,8.0,11.0,46,0.00,,---,0.00,VWS V14.01,2013-02-20 15:35:00,
2013-02-20 09:40:00,46.4,25.7,30.19,ENE,57,5.0,13.0,44,0.00,,---,0.00,VWS V14.01,2013-02-20 15:40:00,
2013-02-20 09:45:00,46.6,25.9,30.19,NE,47,14.0,14.0,44,0.00,,---,0.00,VWS V14.01,2013-02-20 15:45:00,
2013-02-20 09:50:00,46.7,26.0,30.18,ENE,74,10.0,16.0,44,0.00,,---,0.00,VWS V14.01,2013-02-20 15:50:00,
2013-02-20 09:55:00,46.9,25.6,30.18,NE,55,7.0,16.0,43,0.00,,---,0.00,VWS V14.01,2013-02-20 15:55:00,
2013-02-20 10:00:00,47.1,25.8,30.17,ENE,71,5.0,10.0,43,0.00,,---,0.00,VWS V14.01,2013-02-20 16:00:00,
2013-02-20 10:05:00,47.2,25.3,30.17,East,85,4.0,18.0,42,0.00,,---,0.00,VWS V14.01,2013-02-20 16:05:00,
2013-02-20 10:10:00,47.2,25.3,30.17,ENE,57,13.0,18.0,42,0.00,,---,0.00,VWS V14.01,2013-02-20 16:10:00,
2013-02-20 10:15:00,47.2,25.3,30.17,ENE,65,6.0,18.0,42,0.00,,---,0.00,VWS V14.01,2013-02-20 16:15:00,
2013-02-20 10:20:00,47.6,26.8,30.17,NE,55,5.0,18.0,44,0.00,,---,0.00,VWS V14.01,2013-02-20 16:20:00,
2013-02-20 10:25:00,47.9,25.4,30.18,NE,56,7.0,18.0,41,0.00,,---,0.00,VWS V14.01,2013-02-20 16:25:00,
2013-02-20 10:30:00,48.4,26.4,30.17,East,83,9.0,10.0,42,0.00,,---,0.00,VWS V14.01,2013-02-20 16:30:00,
2013-02-20 10:35:00,48.6,26.0,30.17,ENE,65,3.0,13.0,41,0.00,,---,0.00,VWS V14.01,2013-02-20 16:35:00,
2013-02-20 10:40:00,48.9,26.2,30.17,ENE,63,7.0,13.0,41,0.00,,---,0.00,VWS V14.01,2013-02-20 16:40:00,
2013-02-20 10:45:00,49.1,26.4,30.17,East,84,5.0,15.0,41,0.00,,---,0.00,VWS V14.01,2013-02-20 16:45:00,
2013-02-20 10:50:00,49.2,25.9,30.17,NNE,25,6.0,15.0,40,0.00,,---,0.00,VWS V14.01,2013-02-20 16:50:00,
2013-02-20 10:55:00,49.6,26.9,30.17,NE,54,9.0,15.0,41,0.00,,---,0.00,VWS V14.01,2013-02-20 16:55:00,
2013-02-20 11:00:00,49.7,27.0,30.17,NE,54,1.0,4.0,41,0.00,,---,0.00,VWS V14.01,2013-02-20 17:00:00,
2013-02-20 11:05:00,50.1,28.5,30.16,East,90,3.0,6.0,43,0.00,,---,0.00,VWS V14.01,2013-02-20 17:05:00,
2013-02-20 11:10:00,50.8,28.0,30.17,East,98,3.0,9.0,41,0.00,,---,0.00,VWS V14.01,2013-02-20 17:10:00,
2013-02-20 11:15:00,51.2,28.3,30.17,NE,50,5.0,9.0,41,0.00,,---,0.00,VWS V14.01,2013-02-20 17:15:00,
2013-02-20 11:20:00,51.2,27.7,30.17,NE,49,4.0,9.0,40,0.00,,---,0.00,VWS V14.01,2013-02-20 17:20:00,
2013-02-20 11:25:00,51.3,26.6,30.17,NE,47,4.0,9.0,38,0.00,,---,0.00,VWS V14.01,2013-02-20 17:25:00,
2013-02-20 11:30:00,51.4,26.0,30.17,ENE,59,7.0,11.0,37,0.00,,---,0.00,VWS V14.01,2013-02-20 17:30:00,
2013-02-20 11:35:00,51.7,26.3,30.17,NE,46,8.0,11.0,37,0.00,,---,0.00,VWS V14.01,2013-02-20 17:35:00,
2013-02-20 11:40:00,51.8,27.0,30.17,North,9,2.0,11.0,38,0.00,,---,0.00,VWS V14.01,2013-02-20 17:40:00,
2013-02-20 11:45:00,52.0,26.5,30.16,NW,316,2.0,11.0,37,0.00,,---,0.00,VWS V14.01,2013-02-20 17:45:00,
2013-02-20 11:50:00,52.2,27.4,30.16,NNE,19,1.0,11.0,38,0.00,,---,0.00,VWS V14.01,2013-02-20 17:50:00,
2013-02-20 11:55:00,52.8,26.6,30.16,NE,44,4.0,11.0,36,0.00,,---,0.00,VWS V14.01,2013-02-20 17:55:00,
2013-02-20 12:00:00,53.0,26.1,30.15,ENE,78,6.0,7.0,35,0.00,,---,0.00,VWS V14.01,2013-02-20 18:00:00,
2013-02-20 12:05:00,53.0,27.4,30.14,ENE,70,6.0,8.0,37,0.00,,---,0.00,VWS V14.01,2013-02-20 18:05:00,
2013-02-20 12:10:00,53.1,28.2,30.14,ENE,76,4.0,8.0,38,0.00,,---,0.00,VWS V14.01,2013-02-20 18:10:00,
2013-02-20 12:15:00,53.2,27.0,30.14,ENE,59,4.0,8.0,36,0.00,,---,0.00,VWS V14.01,2013-02-20 18:15:00,
2013-02-20 12:20:00,53.3,26.4,30.12,ENE,58,10.0,12.0,35,0.00,,---,0.00,VWS V14.01,2013-02-20 18:20:00,
2013-02-20 12:25:00,53.8,27.5,30.12,East,96,2.0,12.0,36,0.00,,---,0.00,VWS V14.01,2013-02-20 18:25:00,
2013-02-20 12:30:00,54.2,24.2,30.12,ENE,77,4.0,4.0,31,0.00,,---,0.00,VWS V14.01,2013-02-20 18:30:00,
2013-02-20 12:35:00,54.3,25.8,30.11,East,80,4.0,9.0,33,0.00,,---,0.00,VWS V14.01,2013-02-20 18:35:00,
2013-02-20 12:40:00,54.5,26.0,30.11,East,90,1.0,9.0,33,0.00,,---,0.00,VWS V14.01,2013-02-20 18:40:00,
2013-02-20 12:45:00,54.5,25.3,30.11,East,83,9.0,11.0,32,0.00,,---,0.00,VWS V14.01,2013-02-20 18:45:00,
2013-02-20 12:50:00,54.5,25.3,30.11,NE,46,11.0,12.0,32,0.00,,---,0.00,VWS V14.01,2013-02-20 18:50:00,
2013-02-20 12:55:00,54.3,25.1,30.10,East,86,8.0,12.0,32,0.00,,---,0.00,VWS V14.01,2013-02-20 18:55:00,
2013-02-20 13:00:00,54.5,25.3,30.10,ENE,71,6.0,10.0,32,0.00,,---,0.00,VWS V14.01,2013-02-20 19:00:00,
2013-02-20 13:05:00,54.6,25.4,30.09,ENE,76,6.0,10.0,32,0.00,,---,0.00,VWS V14.01,2013-02-20 19:05:00,
2013-02-20 13:10:00,55.0,25.7,30.09,ENE,75,6.0,11.0,32,0.00,,---,0.00,VWS V14.01,2013-02-20 19:10:00,
2013-02-20 13:15:00,55.3,27.4,30.07,ESE,104,4.0,11.0,34,0.00,,---,0.00,VWS V14.01,2013-02-20 19:15:00,
2013-02-20 13:20:00,55.4,25.3,30.07,East,92,5.0,11.0,31,0.00,,---,0.00,VWS V14.01,2013-02-20 19:20:00,
2013-02-20 13:25:00,55.2,25.1,30.07,NE,55,6.0,11.0,31,0.00,,---,0.00,VWS V14.01,2013-02-20 19:25:00,
2013-02-20 13:30:00,55.1,25.8,30.08,NE,53,8.0,10.0,32,0.00,,---,0.00,VWS V14.01,2013-02-20 19:30:00,
2013-02-20 13:35:00,55.2,25.9,30.07,ENE,67,3.0,10.0,32,0.00,,---,0.00,VWS V14.01,2013-02-20 19:35:00,
2013-02-20 13:40:00,55.6,27.7,30.07,ENE,67,2.0,10.0,34,0.00,,---,0.00,VWS V14.01,2013-02-20 19:40:00,
2013-02-20 13:45:00,55.5,25.4,30.06,East,82,5.0,13.0,31,0.00,,---,0.00,VWS V14.01,2013-02-20 19:45:00,
2013-02-20 13:50:00,55.4,26.8,30.06,ENE,61,6.0,13.0,33,0.00,,---,0.00,VWS V14.01,2013-02-20 19:50:00,
2013-02-20 13:55:00,55.3,26.0,30.06,East,101,6.0,13.0,32,0.00,,---,0.00,VWS V14.01,2013-02-20 19:55:00,
2013-02-20 14:00:00,55.5,26.9,30.06,NE,55,3.0,4.0,33,0.00,,---,0.00,VWS V14.01,2013-02-20 20:00:00,
2013-02-20 14:05:00,55.8,25.6,30.07,South,189,2.0,9.0,31,0.00,,---,0.00,VWS V14.01,2013-02-20 20:05:00,
2013-02-20 14:10:00,55.9,24.9,30.07,NE,47,6.0,10.0,30,0.00,,---,0.00,VWS V14.01,2013-02-20 20:10:00,
2013-02-20 14:15:00,55.8,26.4,30.07,SE,129,3.0,10.0,32,0.00,,---,0.00,VWS V14.01,2013-02-20 20:15:00,
2013-02-20 14:20:00,55.9,27.2,30.06,East,83,4.0,10.0,33,0.00,,---,0.00,VWS V14.01,2013-02-20 20:20:00,
2013-02-20 14:25:00,55.7,26.3,30.06,ESE,103,3.0,10.0,32,0.00,,---,0.00,VWS V14.01,2013-02-20 20:25:00,
2013-02-20 14:30:00,55.9,28.0,30.05,ESE,110,2.0,7.0,34,0.00,,---,0.00,VWS V14.01,2013-02-20 20:30:00,
2013-02-20 14:35:00,55.8,26.4,30.05,ENE,67,5.0,11.0,32,0.00,,---,0.00,VWS V14.01,2013-02-20 20:35:00,
2013-02-20 14:40:00,55.9,25.7,30.05,East,90,3.0,11.0,31,0.00,,---,0.00,VWS V14.01,2013-02-20 20:40:00,
2013-02-20 14:45:00,55.9,28.0,30.05,ESE,121,1.0,11.0,34,0.00,,---,0.00,VWS V14.01,2013-02-20 20:45:00,
2013-02-20 14:50:00,56.1,28.8,30.05,East,90,0.0,11.0,35,0.00,,---,0.00,VWS V14.01,2013-02-20 20:50:00,
2013-02-20 14:55:00,56.2,27.5,30.06,ESE,107,1.0,11.0,33,0.00,,---,0.00,VWS V14.01,2013-02-20 20:55:00,
2013-02-20 15:00:00,56.5,28.5,30.05,NE,54,4.0,7.0,34,0.00,,---,0.00,VWS V14.01,2013-02-20 21:00:00,
2013-02-20 15:05:00,56.7,28.7,30.04,NE,56,0.0,7.0,34,0.00,,---,0.00,VWS V14.01,2013-02-20 21:05:00,
2013-02-20 15:10:00,57.0,27.5,30.04,ESE,105,3.0,11.0,32,0.00,,---,0.00,VWS V14.01,2013-02-20 21:10:00,
2013-02-20 15:15:00,56.9,27.4,30.04,East,101,3.0,11.0,32,0.00,,---,0.00,VWS V14.01,2013-02-20 21:15:00,
2013-02-20 15:20:00,57.1,27.5,30.04,SE,130,2.0,11.0,32,0.00,,---,0.00,VWS V14.01,2013-02-20 21:20:00,
2013-02-20 15:25:00,57.1,29.0,30.04,ENE,73,3.0,11.0,34,0.00,,---,0.00,VWS V14.01,2013-02-20 21:25:00,
2013-02-20 15:30:00,57.2,28.4,30.04,SE,138,5.0,5.0,33,0.00,,---,0.00,VWS V14.01,2013-02-20 21:30:00,
2013-02-20 15:35:00,57.3,27.0,30.04,NE,53,4.0,9.0,31,0.00,,---,0.00,VWS V14.01,2013-02-20 21:35:00,
2013-02-20 15:40:00,57.5,26.3,30.04,ENE,67,3.0,9.0,30,0.00,,---,0.00,VWS V14.01,2013-02-20 21:40:00,
2013-02-20 15:45:00,57.8,26.6,30.03,East,96,0.0,9.0,30,0.00,,---,0.00,VWS V14.01,2013-02-20 21:45:00,
2013-02-20 15:50:00,58.0,26.8,30.03,ESE,105,5.0,9.0,30,0.00,,---,0.00,VWS V14.01,2013-02-20 21:50:00,
2013-02-20 15:55:00,57.9,25.0,30.04,SE,128,3.0,9.0,28,0.00,,---,0.00,VWS V14.01,2013-02-20 21:55:00,
2013-02-20 16:00:00,57.8,25.8,30.04,NE,47,4.0,8.0,29,0.00,,---,0.00,VWS V14.01,2013-02-20 22:00:00,
2013-02-20 16:05:00,57.6,26.4,30.03,NE,51,4.0,9.0,30,0.00,,---,0.00,VWS V14.01,2013-02-20 22:05:00,
2013-02-20 16:10:00,57.6,27.2,30.03,ESE,117,1.0,9.0,31,0.00,,---,0.00,VWS V14.01,2013-02-20 22:10:00,
2013-02-20 16:15:00,57.6,27.2,30.04,East,84,1.0,9.0,31,0.00,,---,0.00,VWS V14.01,2013-02-20 22:15:00,
2013-02-20 16:20:00,57.6,28.0,30.05,ENE,64,4.0,9.0,32,0.00,,---,0.00,VWS V14.01,2013-02-20 22:20:00,
2013-02-20 16:25:00,57.5,28.6,30.05,East,90,1.0,9.0,33,0.00,,---,0.00,VWS V14.01,2013-02-20 22:25:00,
2013-02-20 16:30:00,57.4,28.5,30.04,East,83,3.0,5.0,33,0.00,,---,0.00,VWS V14.01,2013-02-20 22:30:00,
2013-02-20 16:35:00,57.4,29.3,30.04,East,95,0.0,5.0,34,0.00,,---,0.00,VWS V14.01,2013-02-20 22:35:00,
2013-02-20 16:40:00,57.6,30.2,30.05,East,92,0.0,5.0,35,0.00,,---,0.00,VWS V14.01,2013-02-20 22:40:00,
2013-02-20 16:45:00,57.8,30.4,30.05,ENE,74,0.0,5.0,35,0.00,,---,0.00,VWS V14.01,2013-02-20 22:45:00,
2013-02-20 16:50:00,57.8,30.4,30.05,East,92,0.0,5.0,35,0.00,,---,0.00,VWS V14.01,2013-02-20 22:50:00,
2013-02-20 16:55:00,57.6,29.5,30.05,ENE,63,4.0,7.0,34,0.00,,---,0.00,VWS V14.01,2013-02-20 22:55:00,
2013-02-20 17:00:00,57.3,29.2,30.05,ENE,74,1.0,3.0,34,0.00,,---,0.00,VWS V14.01,2013-02-20 23:00:00,
2013-02-20 17:05:00,57.2,29.8,30.05,ENE,65,3.0,4.0,35,0.00,,---,0.00,VWS V14.01,2013-02-20 23:05:00,
2013-02-20 17:10:00,56.9,30.2,30.05,ENE,65,4.0,5.0,36,0.00,,---,0.00,VWS V14.01,2013-02-20 23:10:00,
2013-02-20 17:15:00,56.7,31.4,30.05,ENE,69,0.0,5.0,38,0.00,,---,0.00,VWS V14.01,2013-02-20 23:15:00,
2013-02-20 17:20:00,56.5,31.2,30.05,ENE,74,0.0,5.0,38,0.00,,---,0.00,VWS V14.01,2013-02-20 23:20:00,
2013-02-20 17:25:00,56.3,31.7,30.05,ENE,76,0.0,5.0,39,0.00,,---,0.00,VWS V14.01,2013-02-20 23:25:00,
2013-02-20 17:30:00,56.0,31.4,30.05,ENE,76,0.0,2.0,39,0.00,,---,0.00,VWS V14.01,2013-02-20 23:30:00,
2013-02-20 17:35:00,55.8,33.1,30.05,ENE,76,0.0,2.0,42,0.00,,---,0.00,VWS V14.01,2013-02-20 23:35:00,
2013-02-20 17:40:00,55.3,32.6,30.06,ENE,76,0.0,2.0,42,0.00,,---,0.00,VWS V14.01,2013-02-20 23:40:00,
2013-02-20 17:45:00,54.9,32.8,30.06,ENE,76,0.0,2.0,43,0.00,,---,0.00,VWS V14.01,2013-02-20 23:45:00,
2013-02-20 17:50:00,54.4,33.5,30.05,ENE,76,0.0,2.0,45,0.00,,---,0.00,VWS V14.01,2013-02-20 23:50:00,
2013-02-20 17:55:00,54.0,33.2,30.05,ENE,76,0.0,2.0,45,0.00,,---,0.00,VWS V14.01,2013-02-20 23:55:00,
2013-02-20 18:00:00,53.3,33.1,30.06,ENE,76,0.0,0.0,46,0.00,,---,0.00,VWS V14.01,2013-02-21 00:00:00,
2013-02-20 18:05:00,52.6,35.0,30.06,ENE,76,0.0,0.0,51,0.00,,---,0.00,VWS V14.01,2013-02-21 00:05:00,
2013-02-20 18:10:00,51.8,34.3,30.06,ENE,76,0.0,0.0,51,0.00,,---,0.00,VWS V14.01,2013-02-21 00:10:00,
2013-02-20 18:15:00,51.2,35.1,30.05,ENE,76,0.0,0.0,54,0.00,,---,0.00,VWS V14.01,2013-02-21 00:15:00,
2013-02-20 18:20:00,50.6,35.0,30.05,ENE,76,0.0,0.0,55,0.00,,---,0.00,VWS V14.01,2013-02-21 00:20:00,
2013-02-20 18:25:00,50.2,35.1,30.05,ENE,76,0.0,0.0,56,0.00,,---,0.00,VWS V14.01,2013-02-21 00:25:00,
2013-02-20 18:30:00,49.7,34.7,30.05,ENE,76,0.0,0.0,56,0.00,,---,0.00,VWS V14.01,2013-02-21 00:30:00,
2013-02-20 18:35:00,49.2,34.6,30.06,ENE,76,0.0,0.0,57,0.00,,---,0.00,VWS V14.01,2013-02-21 00:35:00,
2013-02-20 18:40:00,48.7,34.2,30.06,ENE,76,0.0,0.0,57,0.00,,---,0.00,VWS V14.01,2013-02-21 00:40:00,
2013-02-20 18:45:00,48.4,33.4,30.07,ENE,76,0.0,0.0,56,0.00,,---,0.00,VWS V14.01,2013-02-21 00:45:00,
2013-02-20 18:50:00,48.0,33.1,30.07,ENE,76,0.0,0.0,56,0.00,,---,0.00,VWS V14.01,2013-02-21 00:50:00,
2013-02-20 18:55:00,47.7,34.1,30.07,ENE,76,0.0,0.0,59,0.00,,---,0.00,VWS V14.01,2013-02-21 00:55:00,
2013-02-20 19:00:00,47.4,34.2,30.07,ENE,76,0.0,0.0,60,0.00,,---,0.00,VWS V14.01,2013-02-21 01:00:00,
2013-02-20 19:05:00,47.0,34.3,30.07,ENE,76,0.0,0.0,61,0.00,,---,0.00,VWS V14.01,2013-02-21 01:05:00,
2013-02-20 19:10:00,46.7,34.0,30.07,ENE,76,0.0,0.0,61,0.00,,---,0.00,VWS V14.01,2013-02-21 01:10:00,
2013-02-20 19:15:00,46.4,34.5,30.06,ENE,76,0.0,0.0,63,0.00,,---,0.00,VWS V14.01,2013-02-21 01:15:00,
2013-02-20 19:20:00,46.1,34.6,30.07,ENE,76,0.0,0.0,64,0.00,,---,0.00,VWS V14.01,2013-02-21 01:20:00,
2013-02-20 19:25:00,45.8,34.7,30.06,ENE,76,0.0,0.0,65,0.00,,---,0.00,VWS V14.01,2013-02-21 01:25:00,
2013-02-20 19:30:00,45.5,34.8,30.06,ENE,76,0.0,0.0,66,0.00,,---,0.00,VWS V14.01,2013-02-21 01:30:00,
2013-02-20 19:35:00,45.4,35.1,30.06,ENE,76,0.0,0.0,67,0.00,,---,0.00,VWS V14.01,2013-02-21 01:35:00,
2013-02-20 19:40:00,45.2,36.0,30.06,ENE,76,0.0,0.0,70,0.00,,---,0.00,VWS V14.01,2013-02-21 01:40:00,
2013-02-20 19:45:00,45.1,35.9,30.06,ENE,76,0.0,0.0,70,0.00,,---,0.00,VWS V14.01,2013-02-21 01:45:00,
2013-02-20 19:50:00,45.0,36.2,30.06,ENE,76,0.0,0.0,71,0.00,,---,0.00,VWS V14.01,2013-02-21 01:50:00,
2013-02-20 19:55:00,44.9,36.4,30.06,ENE,76,0.0,0.0,72,0.00,,---,0.00,VWS V14.01,2013-02-21 01:55:00,
2013-02-20 20:00:00,44.6,36.5,30.05,ENE,76,0.0,0.0,73,0.00,,---,0.00,VWS V14.01,2013-02-21 02:00:00,
2013-02-20 20:05:00,44.3,36.2,30.05,ENE,76,0.0,0.0,73,0.00,,---,0.00,VWS V14.01,2013-02-21 02:05:00,
2013-02-20 20:10:00,44.1,36.0,30.05,ENE,76,0.0,0.0,73,0.00,,---,0.00,VWS V14.01,2013-02-21 02:10:00,
2013-02-20 20:15:00,43.8,36.1,30.05,ENE,76,0.0,0.0,74,0.00,,---,0.00,VWS V14.01,2013-02-21 02:15:00,
2013-02-20 20:20:00,43.5,35.8,30.06,ENE,76,0.0,0.0,74,0.00,,---,0.00,VWS V14.01,2013-02-21 02:20:00,
2013-02-20 20:25:00,43.3,35.9,30.06,ENE,76,0.0,0.0,75,0.00,,---,0.00,VWS V14.01,2013-02-21 02:25:00,
2013-02-20 20:30:00,43.1,35.4,30.06,ENE,76,0.0,0.0,74,0.00,,---,0.00,VWS V14.01,2013-02-21 02:30:00,
2013-02-20 20:35:00,42.9,35.5,30.06,ENE,76,0.0,0.0,75,0.00,,---,0.00,VWS V14.01,2013-02-21 02:35:00,
2013-02-20 20:40:00,42.8,36.1,30.06,ENE,76,0.0,0.0,77,0.00,,---,0.00,VWS V14.01,2013-02-21 02:40:00,
2013-02-20 20:45:00,42.8,35.8,30.06,ENE,76,0.0,0.0,76,0.00,,---,0.00,VWS V14.01,2013-02-21 02:45:00,
2013-02-20 20:50:00,42.7,35.7,30.06,ENE,76,0.0,0.0,76,0.00,,---,0.00,VWS V14.01,2013-02-21 02:50:00,
2013-02-20 20:55:00,42.6,35.9,30.06,ENE,76,0.0,0.0,77,0.00,,---,0.00,VWS V14.01,2013-02-21 02:55:00,
2013-02-20 21:00:00,42.4,36.0,30.05,ENE,76,0.0,0.0,78,0.00,,---,0.00,VWS V14.01,2013-02-21 03:00:00,
2013-02-20 21:05:00,42.4,37.0,30.05,ENE,76,0.0,0.0,81,0.00,,---,0.00,VWS V14.01,2013-02-21 03:05:00,
2013-02-20 21:10:00,42.3,36.9,30.05,ENE,76,0.0,1.0,81,0.00,,---,0.00,VWS V14.01,2013-02-21 03:10:00,
2013-02-20 21:15:00,42.2,36.8,30.05,ENE,76,0.0,2.0,81,0.00,,---,0.00,VWS V14.01,2013-02-21 03:15:00,
2013-02-20 21:20:00,42.2,36.8,30.05,ENE,76,0.0,2.0,81,0.00,,---,0.00,VWS V14.01,2013-02-21 03:20:00,
2013-02-20 21:25:00,42.4,36.7,30.05,ENE,76,0.0,2.0,80,0.00,,---,0.00,VWS V14.01,2013-02-21 03:25:00,
2013-02-20 21:30:00,42.4,36.7,30.05,ENE,76,0.0,0.0,80,0.00,,---,0.00,VWS V14.01,2013-02-21 03:30:00,
2013-02-20 21:35:00,42.3,36.3,30.05,ENE,76,0.0,0.0,79,0.00,,---,0.00,VWS V14.01,2013-02-21 03:35:00,
2013-02-20 21:40:00,42.2,36.5,30.05,ENE,76,0.0,0.0,80,0.00,,---,0.00,VWS V14.01,2013-02-21 03:40:00,
2013-02-20 21:45:00,42.0,36.6,30.05,ENE,76,0.0,0.0,81,0.00,,---,0.00,VWS V14.01,2013-02-21 03:45:00,
2013-02-20 21:50:00,41.8,36.4,30.05,ENE,76,0.0,0.0,81,0.00,,---,0.00,VWS V14.01,2013-02-21 03:50:00,
2013-02-20 21:55:00,41.8,36.4,30.06,ENE,76,0.0,0.0,81,0.00,,---,0.00,VWS V14.01,2013-02-21 03:55:00,
2013-02-20 22:00:00,41.8,36.4,30.06,ENE,76,0.0,0.0,81,0.00,,---,0.00,VWS V14.01,2013-02-21 04:00:00,
2013-02-20 22:05:00,41.8,36.4,30.06,ENE,76,0.0,0.0,81,0.00,,---,0.00,VWS V14.01,2013-02-21 04:05:00,
2013-02-20 22:10:00,41.7,36.3,30.06,ENE,76,0.0,0.0,81,0.00,,---,0.00,VWS V14.01,2013-02-21 04:10:00,
2013-02-20 22:15:00,41.6,36.2,30.05,ENE,76,0.0,0.0,81,0.00,,---,0.00,VWS V14.01,2013-02-21 04:15:00,
2013-02-20 22:20:00,41.5,36.1,30.05,ENE,76,0.0,1.0,81,0.00,,---,0.00,VWS V14.01,2013-02-21 04:20:00,
2013-02-20 22:25:00,41.4,36.0,30.05,ENE,76,0.0,1.0,81,0.00,,---,0.00,VWS V14.01,2013-02-21 04:25:00,
2013-02-20 22:30:00,41.4,35.7,30.05,ENE,76,0.0,0.0,80,0.00,,---,0.00,VWS V14.01,2013-02-21 04:30:00,
2013-02-20 22:35:00,41.4,35.4,30.05,ENE,76,0.0,0.0,79,0.00,,---,0.00,VWS V14.01,2013-02-21 04:35:00,
2013-02-20 22:40:00,41.4,35.4,30.04,ENE,76,0.0,0.0,79,0.00,,---,0.00,VWS V14.01,2013-02-21 04:40:00,
2013-02-20 22:45:00,41.4,35.1,30.04,ENE,76,0.0,0.0,78,0.00,,---,0.00,VWS V14.01,2013-02-21 04:45:00,
2013-02-20 22:50:00,41.4,35.4,30.04,ENE,76,0.0,0.0,79,0.00,,---,0.00,VWS V14.01,2013-02-21 04:50:00,
2013-02-20 22:55:00,41.4,35.7,30.03,ENE,76,0.0,0.0,80,0.00,,---,0.00,VWS V14.01,2013-02-21 04:55:00,
2013-02-20 23:00:00,41.3,35.3,30.03,ENE,76,0.0,0.0,79,0.00,,---,0.00,VWS V14.01,2013-02-21 05:00:00,
2013-02-20 23:05:00,41.2,35.2,30.03,ENE,76,0.0,1.0,79,0.00,,---,0.00,VWS V14.01,2013-02-21 05:05:00,
2013-02-20 23:10:00,41.1,35.1,30.03,ENE,76,0.0,1.0,79,0.00,,---,0.00,VWS V14.01,2013-02-21 05:10:00,
2013-02-20 23:15:00,41.1,35.1,30.02,ENE,76,0.0,1.0,79,0.00,,---,0.00,VWS V14.01,2013-02-21 05:15:00,
2013-02-20 23:20:00,41.1,35.4,30.02,ENE,76,0.0,1.0,80,0.00,,---,0.00,VWS V14.01,2013-02-21 05:20:00,
2013-02-20 23:25:00,41.1,35.1,30.02,ENE,76,0.0,1.0,79,0.00,,---,0.00,VWS V14.01,2013-02-21 05:25:00,
2013-02-20 23:30:00,41.1,35.4,30.01,ENE,76,2.0,2.0,80,0.00,,---,0.00,VWS V14.01,2013-02-21 05:30:00,
2013-02-20 23:35:00,41.3,35.6,30.01,East,94,0.0,3.0,80,0.00,,---,0.00,VWS V14.01,2013-02-21 05:35:00,
2013-02-20 23:40:00,42.0,36.0,30.01,ESE,115,0.0,3.0,79,0.00,,---,0.00,VWS V14.01,2013-02-21 05:40:00,
2013-02-20 23:45:00,42.4,36.0,30.01,ESE,115,0.0,3.0,78,0.00,,---,0.00,VWS V14.01,2013-02-21 05:45:00,
2013-02-20 23:50:00,42.7,36.0,30.01,ESE,114,0.0,3.0,77,0.00,,---,0.00,VWS V14.01,2013-02-21 05:50:00,
2013-02-20 23:55:00,43.1,36.4,30.00,East,94,0.0,3.0,77,0.00,,---,0.00,VWS V14.01,2013-02-21 05:55:00,